LFMT Airport Information

Runway Information
Runway 12R Length 3609 ft width 98 ft
Elevation 10 ft Threshold 328 ft Heading 124
Runway 30L Length 3609 ft Width 98 ft
Elevation 7 ft Threshold ft Heading 304
Runway 12L Length 8530 ft width 164 ft
Elevation 17 ft Threshold ft Heading 124
Runway 30R Length 8530 ft Width 164 ft
Elevation 6 ft Threshold ft Heading 304
Airport Frequencies
Type APP Name MONTPELLIE Frequency 120.375 MHZ
Type ATIS Name MONTPELLIE Frequency 124.125 MHZ
Type GND Name MONTPELLIE Frequency 121.95 MHZ
Type TWR Name MONTPELLIE Frequency 118.2 MHZ
Type TWR Name MONTPELLIE Frequency 118.775 MHZ
Airport Navaids
Type VOR-DME Name Mediterranee Frequency 114450 KHZ
Airport Weather Information & NOTAM
ADDS - METARS form results

(0816 UTC 27 June 2022)
Data provider http://aviationweather.gov/metar/data/
 
METAR text: LFMT 270800Z AUTO 01015KT CAVOK 27/16 Q1014 NOSIG
Conditions at: LFMT (FREJORGUES/MONTP, FR) observed 0800 UTC 27 June 2022
Temperature: 27.0°C (81°F)
Dewpoint: 16.0°C (61°F) [RH = 51%]
Pressure (altimeter): 29.94 inches Hg (1014.0 mb)
Winds: from the N (10 degrees) at 17 MPH (15 knots; 7.7 m/s)
Visibility: 6 or more miles (10+ km)
Ceiling: ceiling and visibility are OK
Clouds: unknown
Weather: no significant weather observed at this time

METAR text: LFMT 270730Z AUTO 01011KT 340V050 9999 FEW043 26/18 Q1014 NOSIG
Conditions at: LFMT (FREJORGUES/MONTP, FR) observed 0730 UTC 27 June 2022
Temperature: 26.0°C (79°F)
Dewpoint: 18.0°C (64°F) [RH = 61%]
Pressure (altimeter): 29.94 inches Hg (1014.0 mb)
Winds: from the N (10 degrees) at 13 MPH (11 knots; 5.7 m/s)
Visibility: 6 or more miles (10+ km)
Ceiling: at least 12,000 feet AGL
Clouds: few clouds at 4300 feet AGL
Weather: no significant weather observed at this time

Forecast for: LFMT (FREJORGUES/MONTP, FR)
Text: TAF LFMT 270200Z 2703/2803 32010KT 9999 FEW035
Forecast period: 0300 UTC 27 June 2022 to 0300 UTC 28 June 2022
Forecast type: FROM: standard forecast or significant change
Winds: from the NW (320 degrees) at 12 MPH (10 knots; 5.1 m/s)
Visibility: 6 or more miles (10+ km)
Ceiling: at least 12,000 feet AGL
Clouds: few clouds at 3500 feet AGL
Weather: no significant weather forecast for this period
Text: TEMPO 2711/2715 SHRA SCT040TCU
Forecast period: 1100 to 1500 UTC 27 June 2022
Forecast type: TEMPORARY: The following changes expected for less than half the time period
Visibility: missing
Ceiling: at least 12,000 feet AGL
Clouds: scattered clouds at 4000 feet AGL
Weather: SHRA  (rain showers)